Sonic Adventure (DX): Overall Rankings

Records: Times | Rings | Scores | Races | Bosses | Freestyle
Leaders: Times | Rings | Scores | Races | Bosses | Freestyle | Overall
Rank Order Asc Player Percent Points Date
1 Sonicspeedruner 98.3% 280 08-26-16
2 Gamepro011 98.2% 297 08-26-16
3 DarkPolarNight 96.2% 629 08-26-16
4 Jawzun 93.5% 1083 08-26-16
5 Dashjump 92.1% 1315 08-26-16
6 DarkspinesSonic 90.3% 1620 08-26-16
7 Avento128bits 89.9% 1679 08-26-16
8 ike6252 89.8% 1699 08-26-16
9 F-Man 88.0% 2006 08-26-16
10 Coolfansonic 85.3% 2456 08-26-16
11 HyperSonic7701 84.7% 2555 08-26-16
12 yoshifan 83.0% 2848 08-26-16
13 frankoredstrato 82.7% 2888 08-26-16
14 TheRealShadnic 82.4% 2943 08-26-16
15 francisco 81.8% 3044 08-26-16
16 Marth 81.5% 3098 08-26-16
17 InferSaime 80.1% 3320 08-26-16
18 PfoSonic 79.7% 3389 08-26-16
19 Paragod 79.4% 3446 08-26-16
20 THC98 78.5% 3593 08-26-16
21 Stefan 76.1% 3999 08-26-16
22 RPGnutter 74.0% 4357 08-26-16
23 bertin 73.8% 4387 08-26-16
24 sonicam 71.7% 4741 08-26-16
25 drminus 70.5% 4944 08-26-16
26 xXMegaManXx 67.1% 5501 08-26-16
27 Combo 65.8% 5724 08-26-16
28 SkyLights 64.6% 5920 08-26-16
29 Diamond 62.6% 6270 08-26-16
30 Auriman1 60.6% 6598 08-26-16
31 GerbilSoft 60.6% 6603 08-26-16
32 OmegaDJ 60.5% 6607 08-26-16
33 magnum12 59.6% 6757 08-26-16
34 Thorn 57.6% 7099 08-26-16
35 P1 Pause 57.3% 7142 08-26-16
36 mike89 56.2% 7332 08-26-16
37 Groudon199 54.3% 7653 08-26-16
38 Dave Cramer 54.3% 7657 08-26-16
39 chainchumper 54.2% 7677 08-26-16
40 Parax 53.4% 7811 08-26-16
41 Shadow Jacky 53.3% 7822 08-26-16
42 Psymar 48.1% 8697 08-26-16
43 Arch 47.3% 8822 08-26-16
44 Chao_Fan 46.5% 8969 08-26-16
45 mauserman 45.4% 9140 08-26-16
46 Quartz 45.3% 9155 08-26-16
47 teamblackarms 44.5% 9296 08-26-16
48 Psyknux 43.5% 9472 08-26-16
49 James_Bertolli 43.4% 9479 08-26-16
50 NintenDan 43.1% 9539 08-26-16
51 Webber3000 42.6% 9617 08-26-16
52 Turbos 42.5% 9637 08-26-16
53 Cream147 42.0% 9711 08-26-16
54 Ring Rush 42.0% 9723 08-26-16
55 videogamemaster777 41.9% 9731 08-26-16
56 Siavash Tazari 41.6% 9775 08-26-16
57 Fr3nZy 41.6% 9786 08-26-16
58 buddychaos0415 41.1% 9858 08-26-16
59 SadisticMystic 40.4% 9988 08-26-16
60 eggFL 39.8% 10085 08-26-16
61 Redd 38.8% 10251 08-26-16
62 SB737 38.2% 10354 08-26-16
63 supersonic465 37.4% 10480 08-26-16
64 supersonicfan 37.1% 10536 08-26-16
65 FuzZerd 35.8% 10747 08-26-16
66 Aitamen 35.4% 10825 08-26-16
67 elecmouse101 35.1% 10872 08-26-16
68 danieldude 34.8% 10915 08-26-16
69 metanightmare22 33.8% 11093 08-26-16
70 Austinf 33.7% 11104 08-26-16
71 dabestgamer 33.4% 11161 08-26-16
72 Cyan Ryan 33.4% 11163 08-26-16
73 MiStEr_ShAoLiN 33.2% 11183 08-26-16
74 Andrea Ritsu 32.4% 11332 08-26-16
75 itsPersonnal 31.9% 11402 08-26-16
76 Cybrax 31.2% 11530 08-26-16
77 SilvertheAlmighty 31.1% 11535 08-26-16
78 VMU Player Banned 29.1% 11876 08-26-16
79 Staf 28.9% 11912 08-26-16
80 Nimrod 28.8% 11935 08-26-16
81 Omega Rafael Santos 28.6% 11967 08-26-16
82 ethmar 28.6% 11969 08-26-16
83 The T 28.5% 11983 08-26-16
84 EngiNerd 28.3% 12015 08-26-16
85 lordmetalsonic 27.7% 12112 08-26-16
86 welldooder64 27.1% 12214 08-26-16
87 Hipertails12 27.0% 12223 08-26-16
88 GreatStar 26.8% 12260 08-26-16
89 The Great Lord Mick 26.7% 12274 08-26-16
90 Sondow 26.7% 12277 08-26-16
91 LinksDarkArrows 26.5% 12309 08-26-16
92 Mastakirby 26.5% 12322 08-26-16
93 Skylace 25.4% 12491 08-26-16
94 Rolken 24.1% 12723 08-26-16
95 Kogen Player Banned 22.3% 13016 08-26-16
96 Xia 22.3% 13024 08-26-16
97 Spinballwizard 22.2% 13028 08-26-16
98 a_moustache 22.2% 13036 08-26-16
99 Twilisailor 21.8% 13104 08-26-16
100 f0rever_zer0 21.8% 13106 08-26-16
101 Cutiefox 21.6% 13136 08-26-16
102 Don 21.5% 13153 08-26-16
103 Game_Complete 21.4% 13167 08-26-16
104 Miles9999 21.3% 13185 08-26-16
105 andres430 21.0% 13243 08-26-16
106 Cruizer 20.7% 13284 08-26-16
107 iSonicKid2K 20.6% 13303 08-26-16
108 SADXTryHard 20.3% 13359 08-26-16
109 GarnetPrincess 19.9% 13426 08-26-16
110 AxlThunder 19.1% 13555 08-26-16
111 knuckles_sonic8 18.8% 13611 08-26-16
112 The Knuckles Chao 18.4% 13678 08-26-16
113 KinkyCadence 18.3% 13687 08-26-16
114 Team_Yoshi 18.0% 13737 08-26-16
115 Termon 17.9% 13750 08-26-16
116 LittleBigness 17.9% 13756 08-26-16
117 FoxBoy 17.7% 13785 08-26-16
118 SonicWinDX 17.7% 13788 08-26-16
119 Drakodan 16.9% 13917 08-26-16
120 Sonic Singularity 15.9% 14083 08-26-16
121 Pokemonmaster888 15.7% 14119 08-26-16
122 BigAL49 14.8% 14276 08-26-16
123 MPit08 14.6% 14309 08-26-16
123 SilverSonic 14.6% 14309 08-26-16
125 WeegeeZV 14.3% 14352 08-26-16
126 koinu93 14.1% 14385 08-26-16
127 Mo Player Banned 14.1% 14387 08-26-16
128 HyperSonic64 13.7% 14452 08-26-16
129 Cod4Scopes 13.7% 14457 08-26-16
130 booo95 13.6% 14475 08-26-16
131 Jerzia 13.5% 14496 08-26-16
132 paulie9990 13.3% 14520 08-26-16
133 Chawkk 13.3% 14522 08-26-16
134 SuperSonic101 13.1% 14561 08-26-16
135 Hunters13 13.1% 14568 08-26-16
136 Maxinfamily 13.0% 14583 08-26-16
137 Kanimayo_Jp 12.7% 14633 08-26-16
137 LilZero 12.7% 14633 08-26-16
139 BrokenArthritis 12.5% 14655 08-26-16
140 PsyBorg 12.4% 14676 08-26-16
141 Flying Fox 12.4% 14681 08-26-16
142 Therio 12.1% 14730 08-26-16
143 sonicspeed 12.0% 14749 08-26-16
144 douglas 11.8% 14770 08-26-16
145 Matt_TY 11.5% 14828 08-26-16
146 thewaytodawnnn 11.4% 14843 08-26-16
147 Cooljay 10.9% 14927 08-26-16
148 joecoolgames 10.7% 14957 08-26-16
149 SeaWolf 10.7% 14962 08-26-16
150 videogamer1014 10.5% 14996 08-26-16
151 AC-Tygo 10.3% 15035 08-26-16
152 welshmoose05 10.2% 15048 08-26-16
153 OddCook 10.0% 15081 08-26-16
154 TFEC Headshot 9.9% 15093 08-26-16
155 crazy1993 9.9% 15097 08-26-16
156 SuperBlitzCraig 9.9% 15100 08-26-16
157 Mcshuggets 9.7% 15130 08-26-16
158 niscool 9.4% 15179 08-26-16
159 imazor017 9.3% 15191 08-26-16
160 Mariobutch 9.2% 15213 08-26-16
160 nuckrieg 9.2% 15213 08-26-16
162 SonicAD 9.2% 15216 08-26-16
163 Shadowthegreat 9.1% 15234 08-26-16
164 SirTobbii 9.1% 15236 08-26-16
165 superjupi 9.1% 15239 08-26-16
166 sonamyfan666 8.7% 15292 08-26-16
167 iarebored 8.7% 15305 08-26-16
168 SaviourDC 8.6% 15318 08-26-16
168 SonicKnuckles 8.6% 15318 08-26-16
170 Werey 8.3% 15369 08-26-16
171 adf 8.2% 15376 08-26-16
172 Megaman EXE565 8.0% 15411 08-26-16
173 ArcticDragon 7.7% 15471 08-26-16
174 Platformer 7.6% 15482 08-26-16
175 timpkmn89 7.5% 15501 08-26-16
176 FocusSight64 7.3% 15525 08-26-16
177 Swift Hobo 7.3% 15527 08-26-16
178 wheatrich 7.3% 15528 08-26-16
179 Rickyman48 7.1% 15558 08-26-16
180 KitsuneYamaro 7.0% 15576 08-26-16
181 Triseena 6.8% 15614 08-26-16
182 SonataSpinDash 6.7% 15640 08-26-16
183 CyberShadow 6.5% 15659 08-26-16
184 dShadow 6.5% 15660 08-26-16
185 slade23 6.5% 15669 08-26-16
186 Destroyer121121 6.5% 15671 08-26-16
186 Starlight Sable 6.5% 15671 08-26-16
188 IsisDazs 6.3% 15693 08-26-16
189 BlankTH 6.1% 15727 08-26-16
190 Monkeh 6.0% 15748 08-26-16
191 SonicU260 5.8% 15776 08-26-16
192 Richied 5.8% 15782 08-26-16
193 DaDude 5.7% 15795 08-26-16
194 Vicklaw 5.6% 15811 08-26-16
195 Zip 5.6% 15819 08-26-16
196 sonicd5 5.6% 15821 08-26-16
197 ALundstrom10 5.2% 15885 08-26-16
198 tal39h 5.2% 15890 08-26-16
199 VeritasDL 5.2% 15893 08-26-16
200 Badlex727 5.1% 15897 08-26-16
201 Kirbymon30 5.1% 15901 08-26-16
202 soniccoloursunleashed 5.0% 15926 08-26-16
203 Drflash55 4.9% 15930 08-26-16
204 Bass 4.8% 15946 08-26-16
205 neaolas 4.7% 15961 08-26-16
206 Yish 4.7% 15970 08-26-16
207 zapp 4.7% 15977 08-26-16
208 superiorsonic 4.6% 15985 08-26-16
209 UninspiredUsername 4.6% 15986 08-26-16
210 Sonicsuperstar1 4.6% 15991 08-26-16
211 gamefreak1292 4.5% 16003 08-26-16
212 Chaos_Overlord 4.2% 16051 08-26-16
213 TakaRikka 4.1% 16072 08-26-16
214 Valfore 4.0% 16085 08-26-16
215 ShinigamiMachine 3.8% 16113 08-26-16
216 N 3.8% 16121 08-26-16
217 Regano1000 3.8% 16125 08-26-16
218 MK 3.6% 16147 08-26-16
219 Ace747 3.6% 16156 08-26-16
220 Illidan 3.2% 16221 08-26-16
221 HHNNBBHHN 3.2% 16224 08-26-16
222 Venick409 3.1% 16231 08-26-16
223 Brian_pso 3.1% 16235 08-26-16
223 nman36 3.1% 16235 08-26-16
225 Sithwarrior26 3.1% 16236 08-26-16
226 Egor305 3.0% 16258 08-26-16
227 ingx24 3.0% 16262 08-26-16
228 TheChaosEmeraIds 2.9% 16265 08-26-16
229 SkyBon 2.9% 16270 08-26-16
230 Nickson98 2.9% 16271 08-26-16
231 Fozer 2.8% 16284 08-26-16
232 FSSRandomvids 2.8% 16291 08-26-16
233 Colomb_30 2.8% 16292 08-26-16
234 dekki1234 2.7% 16298 08-26-16
235 Aiko 2.7% 16308 08-26-16
236 sonic29887 2.7% 16310 08-26-16
237 TheUltraBlur 2.6% 16315 08-26-16
238 1stKirbyever 2.6% 16318 08-26-16
239 TimTH 2.6% 16328 08-26-16
240 Th4tN1nj4Turtl3 2.4% 16357 08-26-16
241 Cort_pso 2.3% 16364 08-26-16
242 Doom-9 2.3% 16373 08-26-16
242 ieatatsonic 2.3% 16373 08-26-16
244 Mariosonic15 2.3% 16376 08-26-16
245 MStitomix 2.1% 16398 08-26-16
246 HermitHelmet 2.1% 16399 08-26-16
247 Artie 2.1% 16411 08-26-16
248 Got4n 2.0% 16414 08-26-16
249 SuperSonic71087 2.0% 16415 08-26-16
250 Jose_15 2.0% 16425 08-26-16
251 Questionguy555 1.9% 16430 08-26-16
252 SuperSonicfan9595 1.9% 16444 08-26-16
253 djmat 1.9% 16446 08-26-16
254 sonicandamy Player Banned 1.7% 16467 08-26-16
255 LancexExWx 1.7% 16474 08-26-16
256 Paixii 1.7% 16475 08-26-16
257 Heroes_Hater 1.7% 16478 08-26-16
257 son1cgu1tar 1.7% 16478 08-26-16
259 BallzeH 1.6% 16490 08-26-16
260 Mankster101 1.6% 16496 08-26-16
261 BecauseWarAnvil 1.5% 16498 08-26-16
262 Jamixesa 1.5% 16501 08-26-16
263 Crydio 1.5% 16510 08-26-16
264 Shanekilz 1.4% 16516 08-26-16
265 SpiritDragon1995 1.4% 16517 08-26-16
266 ReuelBrony 1.4% 16523 08-26-16
267 MarewBFN 1.4% 16530 08-26-16
268 stanski 1.3% 16531 08-26-16
269 Sonique Hedgehog 1.3% 16537 08-26-16
270 p0ker 1.3% 16545 08-26-16
271 Blue Infamy 1.3% 16547 08-26-16
272 ErrortheCucco 1.2% 16558 08-26-16
273 Rikum22 1.2% 16561 08-26-16
274 Arthas 1.1% 16565 08-26-16
275 sonic1001 1.1% 16570 08-26-16
276 AJSIV 1.1% 16575 08-26-16
277 syco1098 1.1% 16577 08-26-16
277 WingedInsignia 1.1% 16577 08-26-16
279 Sonic the Hedgehod16 1.1% 16580 08-26-16
280 Calfd 1.0% 16588 08-26-16
280 sonicfan9 1.0% 16588 08-26-16
282 BlackArmsShadow 0.9% 16598 08-26-16
283 themachoman202 0.9% 16601 08-26-16
284 shadowblast63 Player Banned 0.9% 16608 08-26-16
285 Greham Adelphis 0.9% 16610 08-26-16
286 Mr. Jones 0.9% 16611 08-26-16
287 darkstarblaze 0.9% 16612 08-26-16
287 Fivavoa 0.9% 16612 08-26-16
289 MastaToken 0.9% 16613 08-26-16
290 arcfx1985 0.9% 16614 08-26-16
291 Ben1502 0.8% 16615 08-26-16
292 ptorflaxendrosis 0.8% 16616 08-26-16
293 TommyeAsY 0.8% 16619 08-26-16
294 FlandreScarlet9999vr 0.8% 16621 08-26-16
295 Gvozdevik 0.8% 16622 08-26-16
296 Knuckles 0.8% 16624 08-26-16
296 Zeldocto 0.8% 16624 08-26-16
298 BeeAwwb 0.8% 16628 08-26-16
299 KaM Mark MaK 0.8% 16629 08-26-16
300 ShadouZaHejjihoggu 0.7% 16636 08-26-16
301 Sonic The Star 0.7% 16643 08-26-16
302 darkersupershadic 0.7% 16644 08-26-16
302 Sonic62 0.7% 16644 08-26-16
304 Sarger001 0.7% 16647 08-26-16
305 dragondragon18 0.6% 16649 08-26-16
306 Grady219 0.6% 16650 08-26-16
306 Sogeking 0.6% 16650 08-26-16
308 Shadygamerfreak 0.6% 16651 08-26-16
308 SonicK100 0.6% 16651 08-26-16
310 Jawaah 0.6% 16656 08-26-16
311 Antek 0.6% 16660 08-26-16
312 Klaus 0.6% 16662 08-26-16
313 SilverK 0.6% 16663 08-26-16
314 BioShadow 0.5% 16665 08-26-16
315 SpinDashMaster 0.5% 16670 08-26-16
316 Videogamer123 0.5% 16673 08-26-16
317 oTaiIilLsS 0.4% 16686 08-26-16
318 isaihtb11 0.4% 16687 08-26-16
319 OhNoes! 0.4% 16689 08-26-16
320 zaktu40 0.4% 16690 08-26-16
321 Mad Andy 0.4% 16692 08-26-16
322 gaara1234 0.4% 16693 08-26-16
322 S-MS32X-S 0.4% 16693 08-26-16
324 gamed00d 0.4% 16697 08-26-16
325 Mister_Slick 0.3% 16704 08-26-16
326 Sonic06Fan 0.3% 16707 08-26-16
327 Rush Hero 0.3% 16709 08-26-16
328 SonicMega167 0.3% 16714 08-26-16
329 Iwannabelink 0.2% 16715 08-26-16
330 sonknuck23 0.2% 16719 08-26-16
331 DanielTheFalcon 0.2% 16727 08-26-16
331 gamer1245 0.2% 16727 08-26-16
333 Burningskull123 0.1% 16733 08-26-16
334 Sonicontherun 0.1% 16744 08-26-16
335 Lil_Dude 0.1% 16748 08-26-16
336 antiwwe 0.0% 16750 08-26-16
337 Genuine Hedgehog 0.0% 16754 08-26-16
338 Cbwade15 0.0% 16755 08-26-16
339 Tyrouble 0.0% 16758 08-26-16
340 MegabombBlade 0.0% 16765 08-26-16
340 neji_hyuuga 0.0% 16765 08-26-16
340 Over 0.0% 16765 08-26-16
340 sdj6707 Player Banned 0.0% 16765 08-26-16
340 Tran Sonic Fan Player Banned 0.0% 16765 08-26-16

This page is using the New Data Table System. [FUTURE]

Game ID: 3 | Category ID: 10
Hits: 67,512 | Hits This Month: 203 | DB Calls: 21 | Mem Usage: 5.47 MB | Time: 0.24s | Printable

The Sonic Center v3.9 Hax in Progress
Copyright 2003-2011 by The Sonic Center Team.